createdAt,value
2018-12-27T00:00:25.835Z,75.82
2018-12-27T00:02:55.248Z,75.57
2018-12-27T00:05:23.789Z,75.11
2018-12-27T00:07:53.216Z,75.58
2018-12-27T00:10:22.535Z,75.38
2018-12-27T00:12:51.157Z,75.33
2018-12-27T00:15:19.678Z,75.34
2018-12-27T00:17:49.006Z,76.66
2018-12-27T00:20:18.362Z,74.86
2018-12-27T00:22:47.702Z,75.44
2018-12-27T00:25:17.039Z,75.34
2018-12-27T00:27:45.574Z,74.59
2018-12-27T00:30:14.900Z,76.03
2018-12-27T00:32:44.244Z,75.12
2018-12-27T00:35:12.784Z,77.34
2018-12-27T00:37:42.109Z,75.70
2018-12-27T00:40:11.436Z,76.52
2018-12-27T00:42:39.949Z,76.37
2018-12-27T00:45:09.278Z,77.31
2018-12-27T00:47:38.599Z,76.59
2018-12-27T00:50:07.951Z,76.94
2018-12-27T00:52:37.293Z,76.46
2018-12-27T00:55:06.674Z,76.10
2018-12-27T00:57:36.003Z,76.84
2018-12-27T01:00:04.440Z,77.48
2018-12-27T01:02:32.982Z,76.37
2018-12-27T01:05:02.314Z,77.19
2018-12-27T01:07:31.767Z,76.94
2018-12-27T01:10:01.084Z,77.16
2018-12-27T01:12:30.453Z,78.50
2018-12-27T01:14:59.815Z,77.00
2018-12-27T01:17:29.138Z,78.54
2018-12-27T01:19:58.484Z,76.95
2018-12-27T01:22:27.814Z,79.18
2018-12-27T01:24:57.182Z,76.22
2018-12-27T01:27:25.704Z,79.12
2018-12-27T01:29:54.230Z,76.88
2018-12-27T01:32:23.563Z,76.41
2018-12-27T01:34:52.886Z,77.79
2018-12-27T01:37:34.411Z,76.60
2018-12-27T01:40:03.748Z,75.96
2018-12-27T01:42:33.073Z,76.27
2018-12-27T01:45:02.408Z,76.83
2018-12-27T01:47:31.746Z,77.20
2018-12-27T01:50:01.078Z,77.88
2018-12-27T01:52:30.389Z,77.45
2018-12-27T01:54:59.712Z,77.44
2018-12-27T01:57:28.327Z,77.70
2018-12-27T01:59:56.868Z,77.62
2018-12-27T02:02:26.202Z,78.70
2018-12-27T02:04:55.545Z,77.00
2018-12-27T02:07:24.867Z,77.85
2018-12-27T02:09:54.191Z,78.18
2018-12-27T02:12:23.518Z,79.06
2018-12-27T02:14:52.841Z,83.00
2018-12-27T02:17:22.181Z,79.54
2018-12-27T02:19:51.493Z,79.34
2018-12-27T02:22:20.824Z,78.57
2018-12-27T02:24:49.350Z,80.05
2018-12-27T02:27:17.760Z,79.48
2018-12-27T02:29:47.084Z,77.74
2018-12-27T02:32:16.446Z,78.83
2018-12-27T02:37:39.016Z,79.72
2018-12-27T02:40:08.337Z,81.08
2018-12-27T02:42:37.660Z,79.69
2018-12-27T02:45:06.990Z,78.92
2018-12-27T02:47:36.318Z,79.47
2018-12-27T02:50:05.655Z,79.04
2018-12-27T02:52:34.970Z,79.22
2018-12-27T02:55:03.491Z,79.19
2018-12-27T02:57:32.178Z,78.50
2018-12-27T03:00:00.609Z,78.25
2018-12-27T03:02:29.938Z,79.24
2018-12-27T03:04:59.262Z,79.20
2018-12-27T03:07:28.588Z,79.32
2018-12-27T03:09:57.998Z,80.48
2018-12-27T03:12:27.322Z,81.59
2018-12-27T03:14:56.643Z,82.30
2018-12-27T03:17:25.963Z,82.00
2018-12-27T03:19:55.278Z,82.10
2018-12-27T03:22:23.806Z,82.04
2018-12-27T03:24:53.117Z,82.94
2018-12-27T03:27:21.548Z,82.29
2018-12-27T03:29:50.891Z,81.78
2018-12-27T03:32:20.226Z,81.45
2018-12-27T03:34:49.554Z,80.91
2018-12-27T03:37:18.875Z,80.77
2018-12-27T03:39:48.216Z,84.29
2018-12-27T03:42:17.535Z,80.87
2018-12-27T03:44:46.876Z,81.17
2018-12-27T03:47:15.380Z,80.94
2018-12-27T03:49:43.784Z,79.78
2018-12-27T03:52:13.102Z,80.63
2018-12-27T03:54:42.438Z,81.12
2018-12-27T03:57:11.745Z,81.29
2018-12-27T03:59:41.067Z,80.14
2018-12-27T04:02:10.385Z,82.01
2018-12-27T04:04:39.718Z,79.71
2018-12-27T04:07:09.066Z,79.26
2018-12-27T04:09:38.356Z,79.15
2018-12-27T04:12:06.893Z,78.30
2018-12-27T04:14:35.412Z,77.98
2018-12-27T04:17:04.747Z,78.31
2018-12-27T04:19:34.048Z,77.70
2018-12-27T04:22:03.377Z,78.35
2018-12-27T04:24:32.894Z,78.09
2018-12-27T04:27:02.227Z,77.09
2018-12-27T04:29:31.539Z,80.95
2018-12-27T04:32:00.271Z,78.58
2018-12-27T04:37:30.757Z,80.55
2018-12-27T04:39:59.267Z,77.85
2018-12-27T04:42:39.839Z,79.02
2018-12-27T04:45:08.363Z,78.50
2018-12-27T04:50:30.596Z,79.41
2018-12-27T04:52:59.105Z,82.44
2018-12-27T04:55:27.630Z,83.65
2018-12-27T04:57:56.953Z,82.49
2018-12-27T05:00:26.288Z,83.08
2018-12-27T05:02:55.612Z,82.77
2018-12-27T05:05:24.017Z,83.37
2018-12-27T05:07:53.357Z,84.67
2018-12-27T05:10:21.877Z,85.05
2018-12-27T05:12:51.204Z,84.88
2018-12-27T05:15:19.727Z,83.98
2018-12-27T05:17:49.041Z,85.67
2018-12-27T05:20:18.372Z,82.75
2018-12-27T05:22:47.721Z,84.00
2018-12-27T05:25:17.035Z,82.17
2018-12-27T05:27:46.354Z,80.94
2018-12-27T05:30:15.662Z,80.82
2018-12-27T05:32:45.049Z,79.94
2018-12-27T05:35:13.585Z,80.28
2018-12-27T05:37:42.091Z,79.51
2018-12-27T05:40:11.438Z,79.87
2018-12-27T05:42:39.945Z,79.50
2018-12-27T05:45:09.259Z,80.42
2018-12-27T05:47:38.596Z,79.70
2018-12-27T05:50:07.937Z,78.87
2018-12-27T05:52:37.275Z,78.92
2018-12-27T05:55:05.689Z,78.35
2018-12-27T05:57:34.200Z,78.92
2018-12-27T06:00:04.054Z,81.10
2018-12-27T06:02:32.473Z,80.96
2018-12-27T06:05:01.837Z,79.02
2018-12-27T06:07:31.132Z,78.42
2018-12-27T06:10:00.457Z,78.96
2018-12-27T06:12:29.004Z,78.33
2018-12-27T06:14:58.347Z,78.72
2018-12-27T06:17:27.670Z,77.54
2018-12-27T06:19:57.029Z,77.87
2018-12-27T06:22:26.350Z,79.57
2018-12-27T06:24:56.198Z,80.35
2018-12-27T06:27:24.681Z,81.05
2018-12-27T06:29:54.019Z,83.57
2018-12-27T06:32:23.358Z,82.67
2018-12-27T06:34:52.752Z,82.32
2018-12-27T06:37:22.087Z,83.18
2018-12-27T06:39:51.401Z,82.39
2018-12-27T06:42:20.757Z,82.41
2018-12-27T06:44:49.273Z,81.60
2018-12-27T06:47:17.682Z,82.58
2018-12-27T06:49:46.209Z,83.14
2018-12-27T06:52:15.645Z,80.48
2018-12-27T06:54:45.007Z,80.15
2018-12-27T06:57:14.324Z,79.86
2018-12-27T06:59:43.650Z,79.26
2018-12-27T07:02:12.976Z,79.00
2018-12-27T07:04:48.719Z,78.73
2018-12-27T07:07:31.631Z,77.36
2018-12-27T07:10:00.961Z,79.84
2018-12-27T07:12:30.319Z,77.52
2018-12-27T07:14:58.867Z,78.64
2018-12-27T07:17:27.382Z,75.51
2018-12-27T07:19:56.746Z,75.83
2018-12-27T07:22:26.079Z,76.19
2018-12-27T07:24:55.409Z,75.01
2018-12-27T07:27:24.781Z,74.62
2018-12-27T07:29:54.479Z,74.35
2018-12-27T07:32:23.012Z,74.35
2018-12-27T07:34:56.422Z,73.56
2018-12-27T07:37:40.687Z,73.23
2018-12-27T07:40:09.225Z,73.67
2018-12-27T07:42:38.583Z,75.79
2018-12-27T07:45:07.920Z,72.43
2018-12-27T07:47:37.263Z,71.93
2018-12-27T07:50:06.698Z,71.76
2018-12-27T07:52:36.071Z,72.77
2018-12-27T07:55:05.422Z,72.36
2018-12-27T07:57:35.049Z,71.14
2018-12-27T08:00:15.549Z,71.71
2018-12-27T08:02:44.068Z,71.25
2018-12-27T08:05:13.634Z,71.28
2018-12-27T08:07:42.959Z,70.48
2018-12-27T08:10:11.382Z,69.18
2018-12-27T08:12:40.713Z,68.91
2018-12-27T08:15:10.041Z,68.53
2018-12-27T08:17:39.379Z,69.47
2018-12-27T08:20:08.698Z,69.44
2018-12-27T08:22:38.039Z,68.22
2018-12-27T08:25:33.554Z,68.84
2018-12-27T08:28:02.091Z,68.66
2018-12-27T08:30:31.437Z,68.41
2018-12-27T08:33:00.783Z,68.25
2018-12-27T08:35:30.193Z,66.69
2018-12-27T08:37:59.248Z,66.94
2018-12-27T08:40:27.751Z,67.10
2018-12-27T08:42:57.123Z,66.63
2018-12-27T08:45:25.649Z,67.02
2018-12-27T08:47:54.205Z,66.33
2018-12-27T08:50:23.531Z,65.71
2018-12-27T08:53:05.202Z,65.78
2018-12-27T08:55:33.877Z,65.23
2018-12-27T08:58:03.242Z,65.53
2018-12-27T09:00:32.561Z,66.80
2018-12-27T09:03:01.144Z,66.18
2018-12-27T09:05:30.540Z,67.87
2018-12-27T09:07:59.220Z,65.85
2018-12-27T09:10:28.802Z,65.33
2018-12-27T09:12:58.141Z,66.20
2018-12-27T09:15:27.534Z,65.51
2018-12-27T09:17:56.049Z,67.27
2018-12-27T09:20:25.371Z,65.32
2018-12-27T09:22:54.694Z,64.47
2018-12-27T09:25:26.834Z,64.90
2018-12-27T09:27:55.345Z,65.77
2018-12-27T09:30:24.688Z,65.35
2018-12-27T09:32:53.324Z,64.38
2018-12-27T09:35:26.253Z,64.19
2018-12-27T09:38:11.866Z,63.99
2018-12-27T09:40:41.266Z,63.93
2018-12-27T09:43:09.695Z,64.99
2018-12-27T09:45:38.237Z,63.64
2018-12-27T09:48:07.608Z,64.71
2018-12-27T09:53:19.351Z,64.34
2018-12-27T09:55:47.860Z,66.17
2018-12-27T09:58:17.209Z,64.32
2018-12-27T10:00:46.550Z,64.03
2018-12-27T10:03:15.885Z,65.14
2018-12-27T10:05:45.228Z,64.44
2018-12-27T10:08:13.749Z,62.69
2018-12-27T10:10:43.177Z,63.15
2018-12-27T10:13:11.798Z,64.09
2018-12-27T10:15:40.334Z,63.27
2018-12-27T10:18:09.703Z,63.17
2018-12-27T10:20:39.055Z,64.22
2018-12-27T10:23:08.415Z,63.04
2018-12-27T10:25:37.757Z,64.16
2018-12-27T10:28:07.098Z,62.82
2018-12-27T10:30:36.620Z,62.97
2018-12-27T10:33:06.147Z,62.62
2018-12-27T10:35:41.071Z,61.81
2018-12-27T10:38:05.930Z,62.73
2018-12-27T10:40:35.280Z,63.14
2018-12-27T10:43:03.958Z,63.16
2018-12-27T10:45:35.033Z,61.58
2018-12-27T10:48:04.741Z,61.77
2018-12-27T10:53:16.534Z,61.98
2018-12-27T10:55:45.269Z,61.50
2018-12-27T10:58:13.817Z,62.01
2018-12-27T11:00:43.330Z,62.49
2018-12-27T11:03:12.720Z,62.65
2018-12-27T11:05:48.430Z,61.58
2018-12-27T11:08:31.309Z,61.33
2018-12-27T11:13:43.506Z,62.85
2018-12-27T11:16:12.843Z,62.82
2018-12-27T11:21:45.064Z,60.94
2018-12-27T11:24:14.432Z,61.29
2018-12-27T11:26:42.882Z,62.50
2018-12-27T11:29:12.283Z,61.41
2018-12-27T11:31:40.726Z,62.56
2018-12-27T11:34:10.079Z,60.84
2018-12-27T11:36:38.598Z,61.42
2018-12-27T11:39:07.179Z,60.29
2018-12-27T11:41:36.517Z,60.91
2018-12-27T11:44:05.835Z,61.18
2018-12-27T11:46:35.156Z,60.17
2018-12-27T11:49:04.500Z,60.48
2018-12-27T11:51:33.537Z,61.25
2018-12-27T11:54:02.914Z,61.80
2018-12-27T11:56:32.230Z,60.52
2018-12-27T11:59:00.820Z,61.43
2018-12-27T12:01:29.407Z,60.93
2018-12-27T12:03:58.754Z,62.73
2018-12-27T12:06:28.095Z,60.75
2018-12-27T12:08:57.423Z,61.28
2018-12-27T12:11:26.808Z,60.57
2018-12-27T12:13:56.152Z,62.85
2018-12-27T12:16:25.466Z,61.59
2018-12-27T12:18:54.821Z,62.36
2018-12-27T12:21:23.352Z,60.79
2018-12-27T12:23:51.758Z,59.95
2018-12-27T12:26:20.294Z,61.95
2018-12-27T12:28:48.836Z,63.24
2018-12-27T12:31:18.196Z,61.74
2018-12-27T12:33:47.815Z,62.30
2018-12-27T12:36:17.172Z,60.97
2018-12-27T12:38:46.534Z,60.61
2018-12-27T12:41:15.156Z,60.15
2018-12-27T12:43:44.554Z,61.18
2018-12-27T12:46:13.239Z,61.94
2018-12-27T12:48:42.586Z,61.72
2018-12-27T12:51:23.263Z,60.77
2018-12-27T12:56:40.030Z,61.46
2018-12-27T12:59:11.202Z,61.94
2018-12-27T13:01:39.799Z,64.35
2018-12-27T13:04:09.272Z,62.31
2018-12-27T13:06:38.670Z,61.68
2018-12-27T13:09:07.390Z,61.16
2018-12-27T13:11:36.731Z,61.59
2018-12-27T13:14:07.949Z,61.79
2018-12-27T13:16:36.497Z,61.64
2018-12-27T13:19:05.835Z,61.90
2018-12-27T13:21:34.416Z,62.78
2018-12-27T13:24:02.925Z,61.89
2018-12-27T13:29:27.934Z,62.66
2018-12-27T13:31:59.061Z,62.91
2018-12-27T13:34:29.443Z,62.74
2018-12-27T13:36:58.830Z,65.43
2018-12-27T13:39:28.505Z,62.65
2018-12-27T13:41:57.753Z,62.68
2018-12-27T13:44:26.364Z,63.96
2018-12-27T13:46:54.920Z,62.87
2018-12-27T13:49:24.017Z,63.44
2018-12-27T13:51:53.377Z,63.82
2018-12-27T13:54:22.723Z,63.13
2018-12-27T13:56:53.613Z,63.20
2018-12-27T13:59:23.056Z,62.96
2018-12-27T14:01:52.407Z,63.49
2018-12-27T14:04:20.972Z,64.56
2018-12-27T14:06:49.690Z,62.62
2018-12-27T14:09:18.240Z,63.72
2018-12-27T14:11:47.604Z,63.92
2018-12-27T14:14:16.676Z,64.62
2018-12-27T14:16:46.109Z,64.83
2018-12-27T14:19:15.507Z,65.41
2018-12-27T14:22:04.327Z,63.47
2018-12-27T14:24:34.565Z,63.57
2018-12-27T14:27:03.927Z,64.22
2018-12-27T14:29:33.358Z,65.48
2018-12-27T14:32:02.327Z,66.08
2018-12-27T14:34:30.976Z,66.40
2018-12-27T14:36:59.524Z,64.66
2018-12-27T14:39:28.857Z,64.14
2018-12-27T14:41:58.210Z,64.36
2018-12-27T14:44:27.569Z,65.57
2018-12-27T14:46:56.934Z,64.81
2018-12-27T14:49:26.390Z,64.97
2018-12-27T14:51:55.751Z,65.48
2018-12-27T14:54:25.121Z,64.99
2018-12-27T14:56:54.451Z,65.74
2018-12-27T14:59:23.795Z,65.54
2018-12-27T15:01:52.367Z,66.21
2018-12-27T15:04:21.708Z,66.21
2018-12-27T15:06:50.258Z,66.10
2018-12-27T15:09:19.722Z,66.21
2018-12-27T15:11:49.069Z,67.22
2018-12-27T15:14:18.417Z,66.75
2018-12-27T15:16:47.757Z,66.25
2018-12-27T15:19:17.097Z,67.34
2018-12-27T15:21:46.450Z,66.60
2018-12-27T15:24:15.811Z,66.56
2018-12-27T15:26:44.459Z,67.94
2018-12-27T15:29:13.295Z,66.70
2018-12-27T15:31:41.888Z,67.91
2018-12-27T15:34:10.507Z,67.80
2018-12-27T15:36:39.153Z,66.95
2018-12-27T15:39:07.798Z,67.58
2018-12-27T15:41:36.455Z,67.52
2018-12-27T15:44:05.018Z,68.43
2018-12-27T15:46:33.676Z,67.36
2018-12-27T15:49:02.336Z,68.47
2018-12-27T15:51:31.647Z,68.84
2018-12-27T15:54:00.999Z,68.40
2018-12-27T15:56:29.758Z,68.26
2018-12-27T15:58:58.393Z,68.61
2018-12-27T16:01:27.767Z,68.94
2018-12-27T16:03:57.130Z,69.58
2018-12-27T16:06:25.782Z,69.86
2018-12-27T16:08:55.123Z,70.04
2018-12-27T16:11:24.467Z,69.58
2018-12-27T16:13:53.820Z,69.94
2018-12-27T16:16:23.154Z,70.09
2018-12-27T16:18:52.491Z,69.93
2018-12-27T16:21:21.831Z,71.12
2018-12-27T16:23:51.160Z,70.41
2018-12-27T16:26:20.520Z,70.86
2018-12-27T16:28:49.859Z,71.44
2018-12-27T16:31:18.514Z,72.07
2018-12-27T16:33:47.832Z,71.20
2018-12-27T16:36:17.188Z,71.82
2018-12-27T16:38:46.531Z,71.64
2018-12-27T16:41:15.859Z,71.85
2018-12-27T16:43:45.258Z,71.64
2018-12-27T16:46:14.591Z,72.02
2018-12-27T16:48:43.939Z,71.86
2018-12-27T16:51:13.278Z,72.12
2018-12-27T16:53:42.612Z,72.58
2018-12-27T16:56:11.950Z,72.60
2018-12-27T16:58:41.295Z,72.93
2018-12-27T17:01:10.648Z,72.74
2018-12-27T17:03:39.998Z,72.64
2018-12-27T17:06:08.521Z,72.65
2018-12-27T17:08:37.863Z,72.57
2018-12-27T17:11:07.202Z,72.77
2018-12-27T17:13:36.536Z,72.97
2018-12-27T17:16:05.864Z,73.08
2018-12-27T17:18:35.191Z,72.56
2018-12-27T17:21:04.517Z,73.60
2018-12-27T17:23:33.057Z,73.02
2018-12-27T17:26:02.388Z,74.10
2018-12-27T17:28:31.730Z,73.10
2018-12-27T17:31:00.413Z,72.82
2018-12-27T17:33:29.733Z,72.69
2018-12-27T17:35:59.077Z,73.08
2018-12-27T17:38:28.443Z,73.01
2018-12-27T17:40:57.776Z,73.03
2018-12-27T17:43:27.118Z,73.32
2018-12-27T17:45:56.442Z,73.41
2018-12-27T17:48:25.795Z,73.83
2018-12-27T17:50:55.105Z,73.05
2018-12-27T17:53:23.848Z,73.68
2018-12-27T17:55:52.367Z,74.54
2018-12-27T17:58:21.722Z,73.44
2018-12-27T18:00:51.065Z,74.81
2018-12-27T18:03:20.413Z,74.09
2018-12-27T18:05:49.795Z,73.88
2018-12-27T18:08:19.129Z,73.75
2018-12-27T18:10:48.461Z,73.35
2018-12-27T18:13:17.795Z,76.04
2018-12-27T18:15:46.324Z,74.25
2018-12-27T18:18:15.690Z,73.05
2018-12-27T18:20:45.034Z,73.60
2018-12-27T18:23:14.414Z,73.84
2018-12-27T18:25:43.758Z,74.05
2018-12-27T18:28:13.086Z,74.59
2018-12-27T18:30:42.476Z,74.39
2018-12-27T18:33:11.802Z,77.04
2018-12-27T18:35:41.139Z,74.21
2018-12-27T18:38:10.477Z,74.08
2018-12-27T18:40:39.820Z,74.44
2018-12-27T18:43:09.160Z,73.91
2018-12-27T18:45:37.784Z,74.41
2018-12-27T18:48:06.518Z,75.79
2018-12-27T18:50:35.857Z,75.15
2018-12-27T18:53:05.180Z,74.85
2018-12-27T18:55:34.534Z,75.12
2018-12-27T18:58:03.883Z,75.19
2018-12-27T19:00:33.239Z,75.38
2018-12-27T19:03:02.575Z,77.34
2018-12-27T19:05:31.901Z,75.63
2018-12-27T19:08:01.239Z,75.92
2018-12-27T19:10:29.761Z,76.40
2018-12-27T19:13:17.764Z,76.14
2018-12-27T19:15:52.919Z,76.32
2018-12-27T19:18:42.446Z,76.70
2018-12-27T19:21:37.401Z,77.35
2018-12-27T19:24:05.925Z,78.47
2018-12-27T19:26:35.248Z,77.45
2018-12-27T19:29:04.582Z,77.23
2018-12-27T19:31:33.898Z,77.02
2018-12-27T19:34:03.242Z,77.25
2018-12-27T19:36:32.582Z,77.09
2018-12-27T19:39:02.438Z,77.09
2018-12-27T19:41:30.973Z,77.77
2018-12-27T19:43:59.511Z,77.98
2018-12-27T19:46:28.864Z,78.33
2018-12-27T19:48:58.199Z,78.46
2018-12-27T19:51:27.550Z,78.52
2018-12-27T19:53:56.877Z,78.05
2018-12-27T19:56:26.198Z,78.01
2018-12-27T19:58:55.530Z,78.41
2018-12-27T20:01:24.865Z,78.06
2018-12-27T20:03:54.208Z,78.66
2018-12-27T20:06:22.722Z,79.60
2018-12-27T20:08:52.064Z,79.96
2018-12-27T20:11:21.387Z,79.29
2018-12-27T20:13:50.714Z,79.21
2018-12-27T20:16:20.044Z,79.76
2018-12-27T20:18:49.381Z,79.66
2018-12-27T20:21:18.703Z,79.71
2018-12-27T20:23:48.025Z,79.85
2018-12-27T20:26:17.343Z,80.13
2018-12-27T20:28:46.861Z,80.57
2018-12-27T20:31:16.190Z,80.34
2018-12-27T20:33:44.712Z,80.67
2018-12-27T20:36:14.046Z,80.53
2018-12-27T20:38:42.660Z,81.41
2018-12-27T20:41:12.111Z,80.81
2018-12-27T20:43:41.439Z,80.39
2018-12-27T20:46:10.772Z,80.61
2018-12-27T20:48:40.109Z,81.36
2018-12-27T20:51:09.439Z,80.11
2018-12-27T20:53:38.787Z,79.97
2018-12-27T20:56:08.096Z,80.18
2018-12-27T20:58:37.408Z,79.87
2018-12-27T21:01:06.055Z,79.97
2018-12-27T21:03:35.381Z,80.33
2018-12-27T21:06:03.909Z,80.78
2018-12-27T21:08:33.237Z,81.09
2018-12-27T21:11:02.666Z,80.76
2018-12-27T21:13:32.001Z,80.75
2018-12-27T21:16:01.334Z,81.21
2018-12-27T21:18:30.780Z,81.58
2018-12-27T21:21:00.107Z,81.74
2018-12-27T21:23:29.441Z,82.64
2018-12-27T21:25:57.959Z,82.87
2018-12-27T21:28:26.592Z,83.44
2018-12-27T21:30:55.923Z,83.55
2018-12-27T21:33:25.264Z,82.91
2018-12-27T21:35:54.594Z,83.45
2018-12-27T21:38:23.940Z,84.24
2018-12-27T21:40:53.275Z,83.98
2018-12-27T21:43:22.614Z,83.75
2018-12-27T21:45:51.228Z,83.98
2018-12-27T21:48:19.846Z,84.70
2018-12-27T21:50:48.461Z,85.33
2018-12-27T21:53:17.794Z,85.57
2018-12-27T21:55:47.123Z,85.13
2018-12-27T21:58:16.453Z,85.32
2018-12-27T22:00:45.772Z,85.64
2018-12-27T22:03:15.119Z,86.13
2018-12-27T22:05:44.449Z,85.58
2018-12-27T22:08:13.783Z,84.26
2018-12-27T22:10:43.156Z,84.14
2018-12-27T22:13:12.678Z,85.58
2018-12-27T22:15:41.202Z,85.22
2018-12-27T22:18:10.530Z,85.78
2018-12-27T22:20:39.884Z,86.01
2018-12-27T22:23:09.214Z,86.40
2018-12-27T22:25:38.538Z,86.10
2018-12-27T22:28:07.054Z,86.02
2018-12-27T22:30:36.373Z,87.14
2018-12-27T22:33:05.695Z,86.01
2018-12-27T22:35:35.022Z,86.92
2018-12-27T22:38:03.644Z,86.67
2018-12-27T22:40:32.158Z,87.75
2018-12-27T22:43:01.495Z,88.20
2018-12-27T22:45:30.823Z,87.86
2018-12-27T22:48:00.154Z,87.50
2018-12-27T22:50:29.475Z,86.49
2018-12-27T22:52:58.800Z,85.75
2018-12-27T22:55:28.139Z,85.92
2018-12-27T22:57:57.481Z,86.46
2018-12-27T23:00:46.517Z,86.87
2018-12-27T23:03:18.759Z,87.88
2018-12-27T23:05:48.094Z,86.75
2018-12-27T23:08:16.635Z,87.75
2018-12-27T23:10:45.962Z,88.24
2018-12-27T23:13:14.390Z,87.48
2018-12-27T23:15:43.723Z,87.53
2018-12-27T23:18:13.054Z,87.40
2018-12-27T23:20:41.595Z,87.08
2018-12-27T23:23:10.969Z,87.28
2018-12-27T23:25:40.299Z,87.58
2018-12-27T23:28:09.614Z,87.80
2018-12-27T23:30:38.206Z,87.38
2018-12-27T23:33:06.618Z,87.00
2018-12-27T23:35:35.952Z,88.72
2018-12-27T23:38:05.262Z,86.82
2018-12-27T23:40:34.586Z,88.04
2018-12-27T23:43:03.888Z,87.20
2018-12-27T23:45:33.208Z,88.06
2018-12-27T23:48:01.770Z,88.41
2018-12-27T23:50:31.140Z,87.83
2018-12-27T23:53:00.458Z,87.91
2018-12-27T23:55:28.896Z,88.65
2018-12-27T23:57:58.213Z,89.55
